createdAt,value
2022-10-13T00:00:29.192Z,101913.31
2022-10-13T00:02:55.598Z,101920.34
2022-10-13T00:05:21.969Z,101918.47
2022-10-13T00:07:48.288Z,101919.03
2022-10-13T00:10:14.746Z,101912.44
2022-10-13T00:12:41.120Z,101912.25
2022-10-13T00:15:08.522Z,101911.50
2022-10-13T00:17:36.460Z,101916.75
2022-10-13T00:20:06.447Z,101907.03
2022-10-13T00:22:32.961Z,101907.97
2022-10-13T00:24:59.621Z,101912.63
2022-10-13T00:27:25.993Z,101909.50
2022-10-13T00:29:52.402Z,101903.91
2022-10-13T00:32:19.238Z,101892.06
2022-10-13T00:34:45.959Z,101892.47
2022-10-13T00:37:12.381Z,101891.78
2022-10-13T00:39:38.761Z,101890.41
2022-10-13T00:42:07.097Z,101894.75
2022-10-13T00:45:18.044Z,101899.84
2022-10-13T00:47:49.262Z,101896.59
2022-10-13T00:50:20.781Z,101902.22
2022-10-13T00:52:48.411Z,101896.66
2022-10-13T00:55:19.820Z,101889.03
2022-10-13T00:57:55.109Z,101888.63
2022-10-13T01:00:23.096Z,101889.81
2022-10-13T01:02:49.496Z,101892.94
2022-10-13T01:05:16.853Z,101888.16
2022-10-13T01:07:44.694Z,101891.25
2022-10-13T01:10:11.058Z,101892.22
2022-10-13T01:12:50.617Z,101892.66
2022-10-13T01:15:23.158Z,101899.16
2022-10-13T01:18:18.516Z,101890.06
2022-10-13T01:20:50.669Z,101888.41
2022-10-13T01:23:45.514Z,101882.38
2022-10-13T01:26:21.725Z,101885.94
2022-10-13T01:29:03.582Z,101887.00
2022-10-13T01:31:41.534Z,101879.75
2022-10-13T01:34:20.609Z,101875.88
2022-10-13T01:36:58.975Z,101872.63
2022-10-13T01:39:37.243Z,101862.72
2022-10-13T01:42:13.454Z,101866.84
2022-10-13T01:44:53.121Z,101873.22
2022-10-13T01:47:21.456Z,101869.53
2022-10-13T01:49:50.349Z,101865.97
2022-10-13T01:52:20.503Z,101866.09
2022-10-13T01:54:54.723Z,101868.13
2022-10-13T01:57:36.962Z,101871.81
2022-10-13T02:00:10.980Z,101866.31
2022-10-13T02:02:46.041Z,101867.50
2022-10-13T02:05:37.931Z,101860.06
2022-10-13T02:08:25.451Z,101855.59
2022-10-13T02:10:56.556Z,101852.63
2022-10-13T02:13:26.108Z,101849.00
2022-10-13T02:15:57.679Z,101839.34
2022-10-13T02:18:37.012Z,101838.13
2022-10-13T02:21:04.271Z,101836.72
2022-10-13T02:23:31.464Z,101834.22
2022-10-13T02:25:59.554Z,101840.13
2022-10-13T02:28:27.960Z,101834.88
2022-10-13T02:30:54.429Z,101834.19
2022-10-13T02:33:21.425Z,101831.44
2022-10-13T02:35:47.745Z,101823.66
2022-10-13T02:38:14.127Z,101827.69
2022-10-13T02:40:40.645Z,101819.34
2022-10-13T02:43:07.211Z,101820.97
2022-10-13T02:45:33.558Z,101817.84
2022-10-13T02:48:00.027Z,101819.75
2022-10-13T02:50:26.371Z,101821.63
2022-10-13T02:52:52.812Z,101825.66
2022-10-13T02:55:19.140Z,101812.88
2022-10-13T02:57:45.850Z,101805.28
2022-10-13T03:00:12.938Z,101813.63
2022-10-13T03:02:39.291Z,101814.06
2022-10-13T03:05:05.763Z,101813.59
2022-10-13T03:07:32.203Z,101805.00
2022-10-13T03:09:58.836Z,101812.88
2022-10-13T03:12:25.206Z,101804.84
2022-10-13T03:14:51.530Z,101808.91
2022-10-13T03:17:18.104Z,101804.25
2022-10-13T03:19:44.423Z,101801.13
2022-10-13T03:22:14.465Z,101792.69
2022-10-13T03:24:41.663Z,101791.66
2022-10-13T03:27:08.084Z,101799.00
2022-10-13T03:29:34.456Z,101782.50
2022-10-13T03:32:00.781Z,101788.91
2022-10-13T03:34:27.157Z,101794.19
2022-10-13T03:36:53.479Z,101792.59
2022-10-13T03:39:20.113Z,101790.41
2022-10-13T03:41:46.500Z,101796.81
2022-10-13T03:44:13.339Z,101806.28
2022-10-13T03:46:39.870Z,101797.97
2022-10-13T03:49:06.558Z,101798.78
2022-10-13T03:51:33.301Z,101799.09
2022-10-13T03:53:59.694Z,101802.84
2022-10-13T03:56:27.603Z,101797.50
2022-10-13T03:58:57.489Z,101798.28
2022-10-13T04:01:27.235Z,101789.03
2022-10-13T04:03:55.607Z,101790.81
2022-10-13T04:06:23.156Z,101791.13
2022-10-13T04:08:50.137Z,101794.81
2022-10-13T04:11:16.833Z,101794.06
2022-10-13T04:13:44.304Z,101802.25
2022-10-13T04:16:15.774Z,101796.66
2022-10-13T04:18:44.735Z,101793.66
2022-10-13T04:21:14.679Z,101793.13
2022-10-13T04:23:41.262Z,101798.22
2022-10-13T04:26:15.431Z,101787.19
2022-10-13T04:28:41.863Z,101787.19
2022-10-13T04:31:08.245Z,101793.31
2022-10-13T04:33:34.613Z,101787.41
2022-10-13T04:36:07.063Z,101779.19
2022-10-13T04:38:33.733Z,101786.94
2022-10-13T04:41:03.525Z,101777.72
2022-10-13T04:43:30.414Z,101776.16
2022-10-13T04:46:04.453Z,101768.88
2022-10-13T04:48:31.750Z,101769.00
2022-10-13T04:51:02.984Z,101766.66
2022-10-13T04:53:29.860Z,101766.72
2022-10-13T04:55:56.890Z,101762.22
2022-10-13T04:58:23.336Z,101758.22
2022-10-13T05:00:50.028Z,101756.50
2022-10-13T05:03:16.941Z,101753.78
2022-10-13T05:05:43.392Z,101758.50
2022-10-13T05:08:09.748Z,101760.44
2022-10-13T05:10:36.127Z,101757.22
2022-10-13T05:13:03.021Z,101754.38
2022-10-13T05:15:29.343Z,101736.38
2022-10-13T05:17:55.714Z,101742.38
2022-10-13T05:20:22.044Z,101743.53
2022-10-13T05:22:48.497Z,101754.63
2022-10-13T05:25:14.904Z,101742.41
2022-10-13T05:27:41.306Z,101742.19
2022-10-13T05:30:08.584Z,101739.19
2022-10-13T05:32:35.981Z,101736.22
2022-10-13T05:35:02.338Z,101736.28
2022-10-13T05:37:28.697Z,101719.94
2022-10-13T05:39:55.016Z,101718.09
2022-10-13T05:42:21.828Z,101712.09
2022-10-13T05:44:48.436Z,101712.19
2022-10-13T05:47:15.193Z,101703.78
2022-10-13T05:49:41.615Z,101708.16
2022-10-13T05:52:12.293Z,101718.47
2022-10-13T05:54:43.538Z,101717.44
2022-10-13T05:57:13.273Z,101720.97
2022-10-13T05:59:45.207Z,101705.91
2022-10-13T06:02:15.161Z,101695.06
2022-10-13T06:04:46.228Z,101704.53
2022-10-13T06:07:13.071Z,101715.97
2022-10-13T06:09:40.373Z,101704.47
2022-10-13T06:12:08.644Z,101711.22
2022-10-13T06:14:35.082Z,101705.59
2022-10-13T06:17:01.479Z,101705.44
2022-10-13T06:19:28.195Z,101709.22
2022-10-13T06:21:54.943Z,101704.69
2022-10-13T06:24:21.267Z,101704.81
2022-10-13T06:26:47.643Z,101718.56
2022-10-13T06:29:14.114Z,101705.84
2022-10-13T06:31:40.468Z,101706.16
2022-10-13T06:34:07.457Z,101705.22
2022-10-13T06:36:33.790Z,101708.13
2022-10-13T06:39:00.143Z,101705.56
2022-10-13T06:41:26.476Z,101702.28
2022-10-13T06:43:52.904Z,101706.91
2022-10-13T06:46:19.236Z,101705.22
2022-10-13T06:48:45.600Z,101701.47
2022-10-13T06:51:12.148Z,101702.16
2022-10-13T06:53:38.503Z,101701.44
2022-10-13T06:56:06.844Z,101701.53
2022-10-13T06:58:35.054Z,101691.25
2022-10-13T07:01:01.676Z,101682.34
2022-10-13T07:03:28.595Z,101676.03
2022-10-13T07:05:55.160Z,101690.97
2022-10-13T07:08:21.527Z,101694.47
2022-10-13T07:10:48.668Z,101699.31
2022-10-13T07:13:15.536Z,101714.84
2022-10-13T07:15:41.956Z,101698.66
2022-10-13T07:18:08.320Z,101686.91
2022-10-13T07:20:34.941Z,101685.91
2022-10-13T07:23:02.343Z,101686.94
2022-10-13T07:25:28.865Z,101697.09
2022-10-13T07:27:55.542Z,101687.41
2022-10-13T07:30:22.351Z,101688.47
2022-10-13T07:32:48.854Z,101686.75
2022-10-13T07:35:15.488Z,101685.03
2022-10-13T07:37:41.963Z,101680.28
2022-10-13T07:40:08.816Z,101674.50
2022-10-13T07:42:35.575Z,101668.47
2022-10-13T07:45:01.904Z,101685.66
2022-10-13T07:47:28.937Z,101691.44
2022-10-13T07:49:55.714Z,101683.16
2022-10-13T07:52:22.591Z,101689.75
2022-10-13T07:54:50.292Z,101682.03
2022-10-13T07:57:16.727Z,101674.66
2022-10-13T07:59:43.057Z,101683.53
2022-10-13T08:02:10.590Z,101682.03
2022-10-13T08:04:37.697Z,101677.69
2022-10-13T08:07:05.739Z,101678.72
2022-10-13T08:09:32.326Z,101674.38
2022-10-13T08:12:01.619Z,101686.47
2022-10-13T08:14:29.009Z,101683.47
2022-10-13T08:16:55.783Z,101675.03
2022-10-13T08:19:23.006Z,101679.44
2022-10-13T08:21:58.259Z,101669.91
2022-10-13T08:24:26.692Z,101664.25
2022-10-13T08:26:53.450Z,101663.66
2022-10-13T08:29:23.110Z,101660.22
2022-10-13T08:31:51.814Z,101662.25
2022-10-13T08:34:18.581Z,101662.53
2022-10-13T08:36:44.995Z,101662.84
2022-10-13T08:39:11.436Z,101656.06
2022-10-13T08:41:40.488Z,101659.44
2022-10-13T08:47:15.707Z,101658.00
2022-10-13T08:49:43.430Z,101664.66
2022-10-13T08:52:18.634Z,101668.47
2022-10-13T08:54:45.333Z,101664.34
2022-10-13T08:57:11.773Z,101668.69
2022-10-13T08:59:38.216Z,101676.53
2022-10-13T09:02:23.776Z,101672.06
2022-10-13T09:04:52.736Z,101657.53
2022-10-13T09:07:23.054Z,101649.13
2022-10-13T09:09:52.314Z,101639.81
2022-10-13T09:12:24.062Z,101652.75
2022-10-13T09:15:06.318Z,101653.91
2022-10-13T09:17:34.746Z,101657.94
2022-10-13T09:20:20.377Z,101659.00
2022-10-13T09:23:02.197Z,101651.41
2022-10-13T09:25:29.683Z,101664.44
2022-10-13T09:27:58.801Z,101664.63
2022-10-13T09:30:38.097Z,101657.06
2022-10-13T09:33:13.628Z,101659.59
2022-10-13T09:35:48.338Z,101657.31
2022-10-13T09:38:20.706Z,101660.59
2022-10-13T09:41:13.795Z,101658.06
2022-10-13T09:43:44.775Z,101653.78
2022-10-13T09:46:21.038Z,101643.78
2022-10-13T09:48:50.628Z,101642.09
2022-10-13T09:51:32.265Z,101632.25
2022-10-13T09:53:58.639Z,101633.84
2022-10-13T09:56:43.589Z,101636.56
2022-10-13T09:59:33.417Z,101633.19
2022-10-13T10:02:17.562Z,101630.81
2022-10-13T10:04:46.745Z,101624.78
2022-10-13T10:07:18.507Z,101618.94
2022-10-13T10:09:48.526Z,101614.00
2022-10-13T10:12:24.248Z,101614.88
2022-10-13T10:14:54.204Z,101612.53
2022-10-13T10:17:33.433Z,101626.34
2022-10-13T10:20:14.792Z,101615.13
2022-10-13T10:23:13.492Z,101622.13
2022-10-13T10:25:45.353Z,101619.78
2022-10-13T10:28:49.410Z,101608.50
2022-10-13T10:31:55.445Z,101606.63
2022-10-13T10:34:28.137Z,101601.38
2022-10-13T10:37:25.582Z,101606.00
2022-10-13T10:40:10.883Z,101602.44
2022-10-13T10:42:52.133Z,101590.44
2022-10-13T10:45:24.720Z,101587.16
2022-10-13T10:47:56.751Z,101584.06
2022-10-13T10:50:24.109Z,101571.31
2022-10-13T10:52:56.636Z,101583.16
2022-10-13T10:55:31.166Z,101580.19
2022-10-13T10:58:07.023Z,101583.09
2022-10-13T11:00:45.456Z,101574.03
2022-10-13T11:03:40.361Z,101561.44
2022-10-13T11:06:12.860Z,101564.75
2022-10-13T11:08:42.543Z,101555.34
2022-10-13T11:11:32.300Z,101556.47
2022-10-13T11:14:23.159Z,101559.50
2022-10-13T11:17:10.153Z,101547.69
2022-10-13T11:19:38.572Z,101539.13
2022-10-13T11:22:05.472Z,101533.00
2022-10-13T11:24:34.877Z,101543.34
2022-10-13T11:27:16.790Z,101540.72
2022-10-13T11:29:49.082Z,101552.56
2022-10-13T11:32:27.692Z,101545.63
2022-10-13T11:34:57.782Z,101548.03
2022-10-13T11:37:28.625Z,101543.69
2022-10-13T11:40:15.653Z,101545.47
2022-10-13T11:43:18.215Z,101539.41
2022-10-13T11:45:56.624Z,101543.66
2022-10-13T11:48:44.621Z,101541.78
2022-10-13T11:51:33.662Z,101545.28
2022-10-13T11:54:19.171Z,101542.75
2022-10-13T11:56:48.610Z,101541.09
2022-10-13T11:59:28.100Z,101542.00
2022-10-13T12:02:12.378Z,101542.88
2022-10-13T12:04:46.327Z,101529.81
2022-10-13T12:07:16.292Z,101525.66
2022-10-13T12:09:51.467Z,101523.22
2022-10-13T12:12:21.390Z,101521.56
2022-10-13T12:14:53.751Z,101507.81
2022-10-13T12:17:30.384Z,101500.88
2022-10-13T12:19:59.553Z,101501.75
2022-10-13T12:22:26.843Z,101499.97
2022-10-13T12:25:05.196Z,101500.72
2022-10-13T12:27:40.062Z,101508.47
2022-10-13T12:30:27.551Z,101508.44
2022-10-13T12:32:57.184Z,101511.06
2022-10-13T12:35:29.523Z,101510.94
2022-10-13T12:37:58.363Z,101503.94
2022-10-13T12:40:25.203Z,101505.72
2022-10-13T12:42:51.787Z,101504.91
2022-10-13T12:45:20.865Z,101493.75
2022-10-13T12:47:52.859Z,101493.88
2022-10-13T12:50:25.284Z,101497.25
2022-10-13T12:53:15.407Z,101499.75
2022-10-13T12:56:00.469Z,101492.81
2022-10-13T12:58:33.817Z,101492.00
2022-10-13T13:01:14.123Z,101493.72
2022-10-13T13:03:42.760Z,101491.13
2022-10-13T13:06:20.554Z,101491.97
2022-10-13T13:08:46.978Z,101492.00
2022-10-13T13:11:37.779Z,101489.41
2022-10-13T13:14:22.606Z,101493.94
2022-10-13T13:17:13.350Z,101486.78
2022-10-13T13:19:42.666Z,101483.34
2022-10-13T13:22:09.309Z,101486.03
2022-10-13T13:24:40.237Z,101490.41
2022-10-13T13:27:26.984Z,101484.38
2022-10-13T13:29:55.349Z,101484.34
2022-10-13T13:32:24.369Z,101488.72
2022-10-13T13:34:50.930Z,101493.00
2022-10-13T13:37:50.886Z,101485.09
2022-10-13T13:40:23.075Z,101483.50
2022-10-13T13:42:49.640Z,101486.06
2022-10-13T13:45:18.309Z,101486.03
2022-10-13T13:47:45.628Z,101488.63
2022-10-13T13:50:27.380Z,101491.19
2022-10-13T13:52:53.821Z,101489.50
2022-10-13T13:55:20.163Z,101483.41
2022-10-13T13:57:46.904Z,101480.72
2022-10-13T14:00:15.323Z,101478.16
2022-10-13T14:02:43.669Z,101473.91
2022-10-13T14:05:11.278Z,101466.13
2022-10-13T14:07:37.655Z,101473.97
2022-10-13T14:10:05.312Z,101473.94
2022-10-13T14:12:32.538Z,101481.78
2022-10-13T14:14:58.873Z,101476.50
2022-10-13T14:17:28.583Z,101474.75
2022-10-13T14:19:55.064Z,101471.41
2022-10-13T14:22:22.528Z,101472.22
2022-10-13T14:24:49.146Z,101469.72
2022-10-13T14:27:15.530Z,101465.38
2022-10-13T14:29:41.951Z,101461.00
2022-10-13T14:32:08.299Z,101456.69
2022-10-13T14:34:34.626Z,101457.53
2022-10-13T14:37:00.964Z,101457.50
2022-10-13T14:39:27.319Z,101461.00
2022-10-13T14:41:53.680Z,101468.75
2022-10-13T14:44:20.044Z,101467.00
2022-10-13T14:46:46.387Z,101455.88
2022-10-13T14:49:12.872Z,101450.66
2022-10-13T14:51:39.303Z,101457.59
2022-10-13T14:54:06.928Z,101458.22
2022-10-13T14:56:33.833Z,101453.03
2022-10-13T14:59:01.519Z,101459.84
2022-10-13T15:01:27.901Z,101451.03
2022-10-13T15:03:54.643Z,101453.00
2022-10-13T15:06:23.728Z,101446.66
2022-10-13T15:08:50.588Z,101442.16
2022-10-13T15:11:19.130Z,101449.13
2022-10-13T15:13:46.046Z,101447.41
2022-10-13T15:16:16.723Z,101450.81
2022-10-13T15:18:43.841Z,101441.41
2022-10-13T15:21:10.206Z,101446.44
2022-10-13T15:23:36.679Z,101445.84
2022-10-13T15:26:03.834Z,101442.44
2022-10-13T15:28:36.145Z,101442.63
2022-10-13T15:31:04.519Z,101440.06
2022-10-13T15:33:31.865Z,101451.16
2022-10-13T15:35:58.355Z,101447.78
2022-10-13T15:38:25.115Z,101449.50
2022-10-13T15:40:51.440Z,101448.66
2022-10-13T15:43:18.418Z,101451.34
2022-10-13T15:45:55.445Z,101442.63
2022-10-13T15:48:22.227Z,101453.00
2022-10-13T15:50:48.586Z,101447.59
2022-10-13T15:53:14.947Z,101449.31
2022-10-13T15:55:41.277Z,101446.75
2022-10-13T15:58:11.364Z,101450.28
2022-10-13T16:00:40.624Z,101450.25
2022-10-13T16:03:07.384Z,101444.97
2022-10-13T16:05:33.797Z,101441.50
2022-10-13T16:08:00.170Z,101445.84
2022-10-13T16:10:26.511Z,101442.38
2022-10-13T16:12:52.872Z,101445.84
2022-10-13T16:15:19.963Z,101439.72
2022-10-13T16:17:46.514Z,101440.56
2022-10-13T16:20:12.885Z,101450.88
2022-10-13T16:22:39.258Z,101449.25
2022-10-13T16:25:06.128Z,101442.28
2022-10-13T16:27:32.507Z,101452.69
2022-10-13T16:29:59.259Z,101450.94
2022-10-13T16:32:25.579Z,101448.22
2022-10-13T16:34:52.289Z,101437.00
2022-10-13T16:37:19.727Z,101445.66
2022-10-13T16:39:51.205Z,101448.19
2022-10-13T16:42:18.204Z,101445.78
2022-10-13T16:44:44.556Z,101450.00
2022-10-13T16:47:13.648Z,101450.00
2022-10-13T16:49:43.819Z,101447.38
2022-10-13T16:52:10.281Z,101450.81
2022-10-13T16:54:36.630Z,101442.03
2022-10-13T16:57:03.067Z,101438.59
2022-10-13T16:59:29.480Z,101444.66
2022-10-13T17:01:57.798Z,101441.91
2022-10-13T17:04:24.419Z,101451.59
2022-10-13T17:06:50.853Z,101456.88
2022-10-13T17:09:17.224Z,101455.94
2022-10-13T17:11:44.372Z,101462.91
2022-10-13T17:14:10.863Z,101455.88
2022-10-13T17:16:37.273Z,101455.09
2022-10-13T17:19:03.916Z,101454.03
2022-10-13T17:21:30.305Z,101455.53
2022-10-13T17:23:57.238Z,101453.69
2022-10-13T17:26:23.970Z,101460.94
2022-10-13T17:28:50.721Z,101463.09
2022-10-13T17:31:20.256Z,101472.66
2022-10-13T17:33:47.337Z,101468.31
2022-10-13T17:36:26.284Z,101466.63
2022-10-13T17:38:55.091Z,101474.03
2022-10-13T17:41:22.684Z,101477.25
2022-10-13T17:43:51.162Z,101492.06
2022-10-13T17:46:42.592Z,101476.41
2022-10-13T17:49:11.243Z,101484.22
2022-10-13T17:51:38.242Z,101475.69
2022-10-13T17:54:05.008Z,101472.13
2022-10-13T17:56:31.715Z,101472.72
2022-10-13T17:59:00.239Z,101471.00
2022-10-13T18:01:29.888Z,101466.91
2022-10-13T18:03:58.693Z,101471.13
2022-10-13T18:06:25.395Z,101475.56
2022-10-13T18:08:51.908Z,101467.44
2022-10-13T18:11:20.654Z,101466.78
2022-10-13T18:13:47.477Z,101466.34
2022-10-13T18:16:20.537Z,101464.13
2022-10-13T18:18:47.902Z,101461.44
2022-10-13T18:21:16.816Z,101463.88
2022-10-13T18:23:43.904Z,101463.13
2022-10-13T18:26:14.128Z,101464.34
2022-10-13T18:28:43.482Z,101461.75
2022-10-13T18:31:12.581Z,101464.34
2022-10-13T18:33:39.681Z,101454.13
2022-10-13T18:36:20.425Z,101462.25
2022-10-13T18:38:47.399Z,101467.44
2022-10-13T18:41:14.981Z,101458.28
2022-10-13T18:43:41.419Z,101464.34
2022-10-13T18:46:07.929Z,101461.06
2022-10-13T18:48:35.363Z,101462.88
2022-10-13T18:51:11.416Z,101463.00
2022-10-13T18:53:39.928Z,101463.41
2022-10-13T18:56:13.372Z,101454.94
2022-10-13T18:58:40.239Z,101471.91
2022-10-13T19:01:09.609Z,101463.56
2022-10-13T19:03:37.660Z,101470.22
2022-10-13T19:06:06.462Z,101466.22
2022-10-13T19:08:33.300Z,101470.41
2022-10-13T19:10:59.784Z,101464.56
2022-10-13T19:13:28.123Z,101465.38
2022-10-13T19:16:01.841Z,101468.81
2022-10-13T19:18:28.321Z,101472.06
2022-10-13T19:20:54.734Z,101471.06
2022-10-13T19:23:22.008Z,101472.91
2022-10-13T19:25:48.690Z,101466.66
2022-10-13T19:28:15.194Z,101468.09
2022-10-13T19:30:41.582Z,101469.66
2022-10-13T19:33:09.394Z,101479.31
2022-10-13T19:35:40.672Z,101472.38
2022-10-13T19:38:07.031Z,101469.47
2022-10-13T19:40:33.405Z,101465.72
2022-10-13T19:42:59.780Z,101469.94
2022-10-13T19:45:26.128Z,101472.66
2022-10-13T19:47:52.509Z,101467.28
2022-10-13T19:50:18.921Z,101469.88
2022-10-13T19:52:45.283Z,101461.25
2022-10-13T19:55:11.602Z,101464.63
2022-10-13T19:57:38.021Z,101464.94
2022-10-13T20:00:05.153Z,101465.78
2022-10-13T20:02:31.818Z,101470.41
2022-10-13T20:04:58.148Z,101468.91
2022-10-13T20:07:24.601Z,101472.22
2022-10-13T20:09:50.955Z,101469.09
2022-10-13T20:12:17.319Z,101462.84
2022-10-13T20:14:43.672Z,101467.19
2022-10-13T20:17:10.232Z,101470.16
2022-10-13T20:19:36.742Z,101478.25
2022-10-13T20:22:03.156Z,101470.53
2022-10-13T20:24:29.535Z,101470.25
2022-10-13T20:26:56.297Z,101476.63
2022-10-13T20:29:22.688Z,101475.06
2022-10-13T20:31:49.332Z,101483.69
2022-10-13T20:34:15.814Z,101479.88
2022-10-13T20:36:42.218Z,101477.47
2022-10-13T20:39:08.924Z,101470.56
2022-10-13T20:41:35.386Z,101472.44
2022-10-13T20:44:02.115Z,101471.50
2022-10-13T20:46:28.481Z,101463.69
2022-10-13T20:49:10.415Z,101469.09
2022-10-13T20:51:37.621Z,101471.31
2022-10-13T20:54:04.120Z,101471.44
2022-10-13T20:56:30.509Z,101466.75
2022-10-13T20:58:57.120Z,101460.13
2022-10-13T21:01:23.871Z,101468.75
2022-10-13T21:03:54.245Z,101475.88
2022-10-13T21:06:22.540Z,101477.78
2022-10-13T21:08:49.105Z,101470.72
2022-10-13T21:11:17.288Z,101475.06
2022-10-13T21:13:44.948Z,101478.50
2022-10-13T21:16:19.041Z,101478.09
2022-10-13T21:18:49.798Z,101484.84
2022-10-13T21:21:19.266Z,101485.28
2022-10-13T21:23:50.308Z,101470.72
2022-10-13T21:26:21.319Z,101474.09
2022-10-13T21:28:49.036Z,101474.13
2022-10-13T21:31:17.364Z,101479.44
2022-10-13T21:33:44.432Z,101476.94
2022-10-13T21:36:23.359Z,101469.88
2022-10-13T21:38:55.864Z,101477.03
2022-10-13T21:41:22.713Z,101473.06
2022-10-13T21:43:50.095Z,101474.19
2022-10-13T21:46:25.268Z,101473.56
2022-10-13T21:48:56.486Z,101469.78
2022-10-13T21:51:29.572Z,101481.88
2022-10-13T21:54:08.559Z,101484.22
2022-10-13T21:56:35.699Z,101476.41
2022-10-13T21:59:02.387Z,101478.78
2022-10-13T22:01:29.361Z,101479.47
2022-10-13T22:03:58.366Z,101477.50
2022-10-13T22:06:25.553Z,101467.84
2022-10-13T22:08:54.011Z,101471.44
2022-10-13T22:11:22.836Z,101466.19
2022-10-13T22:13:49.434Z,101465.38
2022-10-13T22:16:19.628Z,101468.94
2022-10-13T22:18:46.740Z,101465.53
2022-10-13T22:21:18.180Z,101464.47
2022-10-13T22:23:45.028Z,101466.09
2022-10-13T22:26:12.601Z,101466.13
2022-10-13T22:28:39.385Z,101458.47
2022-10-13T22:31:10.852Z,101458.31
2022-10-13T22:33:38.947Z,101460.13
2022-10-13T22:36:14.351Z,101468.59
2022-10-13T22:38:40.805Z,101465.38
2022-10-13T22:41:08.640Z,101465.31
2022-10-13T22:43:35.847Z,101462.84
2022-10-13T22:46:02.845Z,101462.59
2022-10-13T22:48:29.280Z,101462.63
2022-10-13T22:50:55.916Z,101461.16
2022-10-13T22:53:22.413Z,101453.44
2022-10-13T22:55:48.810Z,101447.94
2022-10-13T22:58:15.191Z,101444.47
2022-10-13T23:00:41.530Z,101452.66
2022-10-13T23:03:08.017Z,101451.22
2022-10-13T23:05:34.406Z,101455.63
2022-10-13T23:08:00.823Z,101447.84
2022-10-13T23:10:27.182Z,101445.25
2022-10-13T23:12:53.583Z,101452.97
2022-10-13T23:15:19.910Z,101446.22
2022-10-13T23:17:46.551Z,101445.06
2022-10-13T23:20:13.933Z,101447.03
2022-10-13T23:22:40.305Z,101447.75
2022-10-13T23:25:06.950Z,101444.75
2022-10-13T23:27:33.605Z,101440.34
2022-10-13T23:29:59.961Z,101434.09
2022-10-13T23:32:26.785Z,101434.06
2022-10-13T23:34:53.111Z,101431.38
2022-10-13T23:37:19.904Z,101432.63
2022-10-13T23:39:46.461Z,101421.19
2022-10-13T23:42:12.851Z,101425.34
2022-10-13T23:44:39.193Z,101424.91
2022-10-13T23:47:05.556Z,101422.81
2022-10-13T23:49:32.108Z,101422.97
2022-10-13T23:51:58.950Z,101430.06
2022-10-13T23:54:25.291Z,101421.84
2022-10-13T23:56:51.682Z,101420.09
2022-10-13T23:59:18.013Z,101413.91
